aviador You're here:

ZBYN Decoded Metar

TAIYUAN in CHINA
Report Time2018-04-23 22:30:00
UTC Time2018-04-23 23:02:56
Flight Rules vfr VFR
Wind040° at 8 kt
W.Decomp.*RWY 13: 0.6 kt HW 8 kt LCW
W.Rank040° ranks 27
Current wind is above 040° avg. (3.7)
Visibility9999 m
Phenomena:N/A
Clouds:N/A
Expected CloudBase > 2,400 ft AGL from Temp-Dew spread
CeilingNone
Temp12°C (ISA +2)
Dew Point06°C (67% RH)
AAT8.2°C
QNH1022 hPa
Density Alt2,635 ft
Elevation2,556 ft
Report Wrong Elevation
Raw Report
METAR ZBYN 232230Z 04004MPS CAVOK 12/06 Q1022 NOSIG=

Extra information for ZBYN:More info

Metar Taf Metar & Taf Last 4 Metars F.Rules Stats Wind Profile Meteogram Temp Stats Airport Information Weather charts Add Link Nearby VenuesMetar ALERT Operation Metar Decoded Social comments